createdAt,value
2023-04-17T00:00:06.339Z,97.82
2023-04-17T00:01:06.300Z,97.88
2023-04-17T00:02:06.315Z,97.88
2023-04-17T00:03:06.375Z,98.29
2023-04-17T00:04:06.461Z,98.50
2023-04-17T00:05:06.378Z,97.92
2023-04-17T00:06:06.270Z,97.62
2023-04-17T00:07:06.199Z,98.33
2023-04-17T00:08:06.190Z,97.72
2023-04-17T00:09:06.200Z,97.72
2023-04-17T00:10:06.174Z,97.72
2023-04-17T00:11:08.517Z,98.24
2023-04-17T00:12:06.115Z,98.03
2023-04-17T00:13:06.090Z,97.62
2023-04-17T00:14:06.086Z,98.24
2023-04-17T00:15:06.059Z,97.92
2023-04-17T00:16:06.063Z,97.52
2023-04-17T00:17:06.062Z,98.54
2023-04-17T00:18:06.025Z,98.50
2023-04-17T00:19:06.017Z,98.54
2023-04-17T00:20:05.976Z,97.62
2023-04-17T00:21:05.968Z,98.33
2023-04-17T00:22:05.982Z,97.92
2023-04-17T00:23:05.946Z,97.92
2023-04-17T00:24:05.974Z,97.62
2023-04-17T00:25:05.917Z,98.33
2023-04-17T00:26:05.873Z,97.72
2023-04-17T00:27:05.900Z,98.03
2023-04-17T00:28:05.913Z,97.62
2023-04-17T00:29:05.827Z,98.33
2023-04-17T00:30:05.806Z,98.13
2023-04-17T00:31:05.803Z,97.97
2023-04-17T00:32:05.856Z,98.24
2023-04-17T00:33:05.812Z,97.72
2023-04-17T00:34:05.792Z,97.52
2023-04-17T00:35:05.731Z,98.33
2023-04-17T00:36:05.712Z,98.33
2023-04-17T00:37:05.702Z,98.33
2023-04-17T00:38:05.685Z,97.52
2023-04-17T00:39:05.665Z,96.94
2023-04-17T00:40:05.645Z,97.15
2023-04-17T00:41:05.631Z,97.36
2023-04-17T00:42:05.617Z,97.45
2023-04-17T00:43:05.593Z,97.36
2023-04-17T00:44:05.602Z,96.84
2023-04-17T00:45:05.585Z,97.10
2023-04-17T00:46:05.613Z,97.15
2023-04-17T00:47:05.536Z,97.15
2023-04-17T00:48:05.559Z,96.94
2023-04-17T00:49:05.492Z,97.05
2023-04-17T00:50:05.517Z,96.90
2023-04-17T00:51:05.483Z,96.73
2023-04-17T00:52:05.442Z,97.00
2023-04-17T00:53:05.463Z,97.05
2023-04-17T00:54:05.450Z,96.59
2023-04-17T00:55:05.400Z,96.84
2023-04-17T00:56:05.389Z,96.22
2023-04-17T00:57:05.373Z,96.84
2023-04-17T00:58:05.341Z,96.33
2023-04-17T00:59:05.332Z,96.94
2023-04-17T01:00:05.308Z,96.53
2023-04-17T01:01:05.430Z,96.53
2023-04-17T01:02:05.351Z,96.53
2023-04-17T01:03:05.452Z,97.05
2023-04-17T01:04:05.385Z,96.73
2023-04-17T01:05:05.227Z,97.15
2023-04-17T01:06:05.241Z,96.64
2023-04-17T01:07:05.195Z,96.64
2023-04-17T01:08:05.215Z,97.05
2023-04-17T01:09:05.168Z,96.84
2023-04-17T01:10:05.165Z,96.94
2023-04-17T01:11:05.124Z,97.05
2023-04-17T01:12:05.108Z,97.15
2023-04-17T01:13:05.142Z,97.25
2023-04-17T01:14:05.074Z,97.15
2023-04-17T01:15:05.058Z,97.36
2023-04-17T01:16:05.066Z,97.36
2023-04-17T01:17:05.100Z,97.36
2023-04-17T01:18:05.133Z,97.36
2023-04-17T01:19:05.003Z,97.45
2023-04-17T01:20:05.057Z,97.56
2023-04-17T01:21:04.962Z,97.56
2023-04-17T01:22:04.944Z,97.45
2023-04-17T01:23:04.922Z,97.77
2023-04-17T01:24:04.920Z,97.66
2023-04-17T01:25:04.898Z,97.66
2023-04-17T01:26:04.869Z,97.97
2023-04-17T01:27:04.863Z,98.28
2023-04-17T01:28:04.834Z,97.77
2023-04-17T01:29:04.821Z,97.66
2023-04-17T01:30:04.879Z,97.77
2023-04-17T01:31:04.836Z,97.97
2023-04-17T01:32:04.797Z,98.69
2023-04-17T01:33:04.800Z,98.59
2023-04-17T01:34:04.734Z,98.59
2023-04-17T01:35:04.777Z,97.97
2023-04-17T01:36:04.745Z,97.66
2023-04-17T01:37:04.746Z,97.66
2023-04-17T01:38:04.665Z,98.07
2023-04-17T01:39:04.653Z,97.56
2023-04-17T01:40:04.638Z,97.56
2023-04-17T01:41:04.636Z,97.87
2023-04-17T01:42:04.654Z,98.18
2023-04-17T01:43:04.589Z,97.66
2023-04-17T01:44:05.291Z,98.02
2023-04-17T01:45:04.553Z,98.59
2023-04-17T01:46:04.568Z,98.43
2023-04-17T01:47:04.517Z,98.38
2023-04-17T01:48:04.661Z,98.38
2023-04-17T01:49:04.480Z,98.79
2023-04-17T01:50:04.473Z,97.87
2023-04-17T01:51:04.453Z,98.18
2023-04-17T01:52:04.430Z,98.38
2023-04-17T01:53:04.446Z,98.18
2023-04-17T01:54:04.405Z,98.49
2023-04-17T01:55:04.403Z,98.28
2023-04-17T01:56:04.369Z,98.53
2023-04-17T01:57:04.391Z,98.07
2023-04-17T01:58:04.330Z,98.43
2023-04-17T01:59:04.318Z,98.07
2023-04-17T02:00:04.301Z,98.59
2023-04-17T02:01:04.294Z,98.69
2023-04-17T02:02:04.423Z,98.90
2023-04-17T02:03:04.388Z,98.74
2023-04-17T02:04:04.310Z,98.74
2023-04-17T02:05:04.219Z,98.59
2023-04-17T02:06:04.202Z,98.69
2023-04-17T02:07:04.207Z,98.74
2023-04-17T02:08:04.196Z,98.33
2023-04-17T02:09:04.161Z,98.69
2023-04-17T02:10:04.140Z,98.07
2023-04-17T02:11:04.115Z,98.49
2023-04-17T02:12:04.157Z,98.28
2023-04-17T02:13:04.090Z,98.59
2023-04-17T02:14:04.125Z,98.90
2023-04-17T02:15:04.049Z,98.38
2023-04-17T02:16:04.045Z,99.15
2023-04-17T02:17:04.011Z,99.25
2023-04-17T02:18:04.036Z,99.15
2023-04-17T02:19:03.983Z,99.25
2023-04-17T02:20:03.994Z,99.35
2023-04-17T02:21:03.949Z,99.15
2023-04-17T02:22:03.933Z,99.10
2023-04-17T02:23:03.911Z,99.15
2023-04-17T02:24:03.892Z,99.15
2023-04-17T02:25:03.879Z,99.10
2023-04-17T02:26:03.866Z,99.10
2023-04-17T02:27:10.321Z,99.41
2023-04-17T02:28:03.833Z,99.51
2023-04-17T02:29:03.832Z,99.62
2023-04-17T02:30:03.802Z,99.41
2023-04-17T02:31:03.805Z,99.21
2023-04-17T02:32:03.761Z,99.10
2023-04-17T02:33:03.809Z,99.56
2023-04-17T02:34:03.768Z,99.62
2023-04-17T02:35:03.717Z,99.99
2023-04-17T02:36:03.692Z,99.99
2023-04-17T02:37:03.676Z,99.93
2023-04-17T02:38:03.658Z,99.99
2023-04-17T02:39:03.648Z,99.99
2023-04-17T02:40:03.621Z,99.51
2023-04-17T02:41:03.615Z,99.51
2023-04-17T02:42:03.585Z,99.51
2023-04-17T02:43:03.603Z,99.62
2023-04-17T02:44:03.575Z,99.51
2023-04-17T02:45:03.555Z,99.51
2023-04-17T02:46:03.532Z,99.00
2023-04-17T02:47:03.545Z,99.10
2023-04-17T02:48:03.557Z,99.41
2023-04-17T02:49:03.468Z,99.00
2023-04-17T02:50:03.453Z,99.21
2023-04-17T02:51:03.435Z,99.21
2023-04-17T02:52:03.424Z,99.10
2023-04-17T02:53:03.408Z,99.21
2023-04-17T02:54:03.390Z,98.90
2023-04-17T02:55:03.374Z,98.94
2023-04-17T02:56:03.373Z,98.84
2023-04-17T02:57:03.335Z,98.90
2023-04-17T02:58:03.358Z,98.90
2023-04-17T02:59:03.318Z,99.21
2023-04-17T03:00:03.297Z,98.94
2023-04-17T03:01:03.356Z,98.74
2023-04-17T03:02:03.347Z,98.79
2023-04-17T03:03:03.494Z,98.84
2023-04-17T03:04:03.429Z,98.74
2023-04-17T03:05:03.206Z,98.94
2023-04-17T03:06:03.204Z,98.94
2023-04-17T03:07:03.168Z,98.94
2023-04-17T03:08:03.154Z,98.84
2023-04-17T03:09:03.161Z,98.94
2023-04-17T03:10:03.124Z,99.05
2023-04-17T03:11:03.102Z,99.05
2023-04-17T03:12:03.092Z,99.05
2023-04-17T03:13:03.064Z,99.25
2023-04-17T03:14:03.049Z,99.51
2023-04-17T03:15:03.071Z,99.97
2023-04-17T03:16:03.037Z,99.91
2023-04-17T03:17:03.012Z,99.99
2023-04-17T03:18:03.018Z,99.81
2023-04-17T03:19:02.973Z,99.91
2023-04-17T03:20:03.004Z,99.91
2023-04-17T03:21:02.931Z,99.91
2023-04-17T03:22:02.916Z,99.81
2023-04-17T03:23:02.908Z,99.99
2023-04-17T03:24:02.886Z,99.99
2023-04-17T03:25:02.863Z,99.99
2023-04-17T03:26:02.925Z,99.99
2023-04-17T03:27:02.833Z,99.99
2023-04-17T03:28:02.813Z,99.99
2023-04-17T03:29:02.803Z,99.99
2023-04-17T03:30:02.790Z,99.99
2023-04-17T03:31:02.764Z,99.99
2023-04-17T03:32:02.832Z,99.99
2023-04-17T03:33:02.910Z,99.99
2023-04-17T03:34:02.718Z,99.99
2023-04-17T03:35:02.713Z,99.99
2023-04-17T03:36:02.681Z,99.99
2023-04-17T03:37:02.678Z,99.99
2023-04-17T03:38:02.643Z,99.99
2023-04-17T03:39:02.625Z,99.99
2023-04-17T03:40:02.615Z,99.99
2023-04-17T03:41:02.588Z,99.99
2023-04-17T03:42:02.632Z,99.99
2023-04-17T03:43:02.555Z,99.99
2023-04-17T03:44:02.550Z,99.99
2023-04-17T03:45:02.528Z,99.99
2023-04-17T03:46:02.538Z,99.99
2023-04-17T03:47:02.495Z,99.99
2023-04-17T03:48:02.659Z,99.99
2023-04-17T03:49:02.468Z,99.99
2023-04-17T03:50:02.442Z,99.99
2023-04-17T03:51:03.345Z,99.99
2023-04-17T03:52:02.422Z,99.99
2023-04-17T03:53:02.387Z,99.99
2023-04-17T03:54:02.394Z,99.76
2023-04-17T03:55:02.352Z,99.76
2023-04-17T03:56:02.331Z,99.99
2023-04-17T03:57:02.316Z,99.99
2023-04-17T03:58:02.300Z,99.96
2023-04-17T03:59:02.307Z,99.99
2023-04-17T04:00:02.274Z,99.76
2023-04-17T04:01:02.290Z,99.99
2023-04-17T04:02:02.294Z,99.96
2023-04-17T04:03:02.540Z,99.86
2023-04-17T04:04:02.264Z,99.99
2023-04-17T04:05:02.219Z,99.86
2023-04-17T04:06:02.184Z,99.99
2023-04-17T04:07:02.160Z,99.96
2023-04-17T04:08:02.138Z,99.99
2023-04-17T04:09:02.107Z,99.99
2023-04-17T04:10:02.088Z,99.99
2023-04-17T04:11:02.176Z,99.99
2023-04-17T04:12:02.079Z,99.99
2023-04-17T04:13:02.041Z,99.65
2023-04-17T04:14:02.032Z,99.30
2023-04-17T04:15:02.007Z,99.34
2023-04-17T04:16:02.012Z,99.14
2023-04-17T04:17:02.011Z,99.24
2023-04-17T04:18:02.023Z,99.34
2023-04-17T04:19:01.955Z,98.72
2023-04-17T04:20:01.915Z,99.14
2023-04-17T04:21:01.921Z,98.72
2023-04-17T04:22:01.877Z,99.14
2023-04-17T04:23:01.932Z,98.93
2023-04-17T04:24:01.848Z,99.14
2023-04-17T04:25:01.828Z,99.04
2023-04-17T04:26:01.973Z,99.14
2023-04-17T04:27:01.796Z,99.14
2023-04-17T04:28:01.817Z,98.72
2023-04-17T04:29:01.787Z,98.52
2023-04-17T04:30:01.757Z,98.93
2023-04-17T04:31:01.751Z,99.04
2023-04-17T04:32:01.714Z,98.93
2023-04-17T04:33:01.717Z,99.04
2023-04-17T04:34:01.711Z,98.93
2023-04-17T04:35:01.689Z,99.04
2023-04-17T04:36:01.982Z,99.14
2023-04-17T04:37:01.629Z,99.14
2023-04-17T04:38:01.605Z,98.93
2023-04-17T04:39:01.596Z,99.04
2023-04-17T04:40:01.628Z,99.04
2023-04-17T04:41:01.612Z,98.93
2023-04-17T04:42:01.554Z,98.42
2023-04-17T04:43:01.521Z,98.42
2023-04-17T04:44:01.531Z,98.42
2023-04-17T04:45:01.580Z,98.93
2023-04-17T04:46:01.484Z,98.83
2023-04-17T04:47:01.629Z,98.83
2023-04-17T04:48:01.451Z,98.72
2023-04-17T04:49:01.418Z,98.93
2023-04-17T04:50:01.429Z,98.93
2023-04-17T04:51:01.492Z,99.04
2023-04-17T04:52:01.422Z,98.93
2023-04-17T04:53:01.356Z,98.72
2023-04-17T04:54:01.347Z,98.83
2023-04-17T04:55:01.343Z,99.14
2023-04-17T04:56:01.295Z,98.83
2023-04-17T04:57:01.300Z,98.93
2023-04-17T04:58:01.271Z,98.93
2023-04-17T04:59:01.254Z,99.34
2023-04-17T05:00:01.255Z,99.24
2023-04-17T05:01:01.270Z,99.14
2023-04-17T05:02:01.330Z,99.34
2023-04-17T05:03:01.570Z,99.55
2023-04-17T05:04:01.405Z,99.99
2023-04-17T05:05:01.271Z,99.99
2023-04-17T05:06:01.138Z,99.76
2023-04-17T05:07:01.136Z,99.55
2023-04-17T05:08:01.141Z,99.99
2023-04-17T05:09:01.138Z,99.65
2023-04-17T05:10:01.069Z,99.96
2023-04-17T05:11:01.051Z,99.96
2023-04-17T05:12:01.026Z,99.99
2023-04-17T05:13:01.038Z,99.96
2023-04-17T05:14:01.002Z,99.99
2023-04-17T05:15:00.988Z,99.99
2023-04-17T05:16:01.766Z,99.99
2023-04-17T05:17:00.944Z,99.99
2023-04-17T05:18:00.959Z,99.99
2023-04-17T05:19:00.960Z,99.99
2023-04-17T05:20:00.915Z,99.99
2023-04-17T05:21:00.881Z,99.99
2023-04-17T05:22:00.861Z,99.99
2023-04-17T05:23:00.867Z,99.99
2023-04-17T05:24:00.827Z,99.99
2023-04-17T05:25:00.836Z,99.99
2023-04-17T05:26:00.797Z,99.99
2023-04-17T05:27:00.774Z,99.99
2023-04-17T05:28:00.752Z,99.99
2023-04-17T05:29:00.737Z,99.99
2023-04-17T05:30:00.773Z,99.99
2023-04-17T05:31:00.722Z,99.99
2023-04-17T05:32:00.829Z,99.99
2023-04-17T05:33:00.697Z,99.99
2023-04-17T05:34:00.650Z,99.99
2023-04-17T05:35:00.647Z,99.99
2023-04-17T05:36:00.644Z,99.99
2023-04-17T05:37:00.608Z,99.99
2023-04-17T05:38:00.588Z,99.99
2023-04-17T05:39:00.573Z,99.99
2023-04-17T05:40:00.644Z,99.99
2023-04-17T05:41:00.533Z,99.99
2023-04-17T05:42:00.514Z,99.99
2023-04-17T05:43:00.493Z,99.99
2023-04-17T05:44:00.477Z,99.99
2023-04-17T05:45:00.474Z,99.99
2023-04-17T05:46:00.492Z,99.99
2023-04-17T05:47:00.426Z,99.99
2023-04-17T05:48:00.439Z,99.99
2023-04-17T05:49:00.408Z,99.99
2023-04-17T05:50:00.371Z,99.99
2023-04-17T05:51:00.392Z,99.99
2023-04-17T05:52:00.364Z,99.99
2023-04-17T05:53:00.321Z,99.99
2023-04-17T05:54:00.304Z,99.99
2023-04-17T05:55:00.319Z,99.99
2023-04-17T05:56:00.301Z,99.99
2023-04-17T05:57:00.419Z,99.99
2023-04-17T05:58:01.214Z,99.99
2023-04-17T05:59:00.222Z,99.99
2023-04-17T06:00:00.241Z,99.99
2023-04-17T06:01:00.234Z,99.99
2023-04-17T06:02:00.432Z,99.99
2023-04-17T06:03:00.257Z,99.99
2023-04-17T06:04:01.922Z,99.99
2023-04-17T06:05:00.339Z,99.99
2023-04-17T06:06:00.209Z,99.99
2023-04-17T06:07:00.128Z,99.99
2023-04-17T06:08:00.069Z,99.99
2023-04-17T06:09:00.051Z,99.91
2023-04-17T06:10:00.040Z,99.99
2023-04-17T06:11:00.068Z,99.99
2023-04-17T06:12:00.005Z,99.99
2023-04-17T06:13:00.015Z,99.99
2023-04-17T06:13:59.967Z,99.99
2023-04-17T06:14:59.950Z,99.99
2023-04-17T06:15:59.940Z,99.99
2023-04-17T06:16:59.988Z,99.99
2023-04-17T06:17:59.987Z,99.99
2023-04-17T06:18:59.888Z,99.99
2023-04-17T06:19:59.871Z,99.99
2023-04-17T06:20:59.849Z,99.99
2023-04-17T06:21:59.838Z,99.99
2023-04-17T06:22:59.841Z,99.99
2023-04-17T06:23:59.800Z,99.99
2023-04-17T06:24:59.825Z,99.99
2023-04-17T06:25:59.768Z,99.91
2023-04-17T06:26:59.749Z,99.91
2023-04-17T06:27:59.763Z,99.60
2023-04-17T06:28:59.764Z,99.81
2023-04-17T06:29:59.725Z,99.91
2023-04-17T06:30:59.754Z,99.09
2023-04-17T06:31:59.679Z,98.88
2023-04-17T06:32:59.668Z,99.19
2023-04-17T06:33:59.634Z,99.30
2023-04-17T06:34:59.901Z,99.19
2023-04-17T06:35:59.601Z,98.79
2023-04-17T06:36:59.612Z,99.19
2023-04-17T06:37:59.594Z,99.19
2023-04-17T06:38:59.546Z,99.51
2023-04-17T06:39:59.582Z,99.56
2023-04-17T06:40:59.513Z,99.25
2023-04-17T06:41:59.495Z,98.58
2023-04-17T06:42:59.486Z,98.88
2023-04-17T06:43:59.463Z,98.79
2023-04-17T06:44:59.453Z,98.63
2023-04-17T06:45:59.483Z,98.94
2023-04-17T06:47:01.753Z,98.53
2023-04-17T06:47:59.462Z,98.74
2023-04-17T06:48:59.381Z,98.43
2023-04-17T06:49:59.362Z,98.63
2023-04-17T06:50:59.360Z,98.63
2023-04-17T06:51:59.366Z,98.53
2023-04-17T06:52:59.311Z,97.81
2023-04-17T06:53:59.330Z,98.53
2023-04-17T06:54:59.305Z,98.84
2023-04-17T06:55:59.264Z,97.91
2023-04-17T06:56:59.276Z,97.71
2023-04-17T06:57:59.252Z,97.71
2023-04-17T06:59:01.323Z,96.58
2023-04-17T06:59:59.284Z,96.78
2023-04-17T07:00:59.187Z,96.17
2023-04-17T07:01:59.231Z,96.99
2023-04-17T07:02:59.227Z,96.68
2023-04-17T07:03:59.212Z,96.89
2023-04-17T07:04:59.219Z,96.78
2023-04-17T07:05:59.096Z,97.05
2023-04-17T07:06:59.123Z,97.05
2023-04-17T07:07:59.066Z,96.84
2023-04-17T07:08:59.064Z,96.73
2023-04-17T07:09:59.055Z,96.43
2023-04-17T07:10:59.012Z,96.12
2023-04-17T07:11:59.000Z,96.84
2023-04-17T07:12:58.984Z,96.43
2023-04-17T07:13:58.964Z,95.71
2023-04-17T07:14:58.985Z,94.89
2023-04-17T07:15:59.003Z,95.56
2023-04-17T07:16:58.924Z,95.56
2023-04-17T07:17:58.955Z,94.99
2023-04-17T07:18:58.882Z,95.09
2023-04-17T07:19:58.878Z,94.95
2023-04-17T07:20:58.906Z,94.74
2023-04-17T07:21:58.832Z,94.33
2023-04-17T07:22:58.822Z,94.23
2023-04-17T07:23:58.815Z,94.64
2023-04-17T07:24:58.791Z,94.43
2023-04-17T07:25:58.811Z,94.33
2023-04-17T07:26:58.754Z,94.54
2023-04-17T07:27:58.732Z,94.95
2023-04-17T07:28:58.718Z,95.31
2023-04-17T07:29:58.750Z,94.29
2023-04-17T07:30:58.718Z,94.49
2023-04-17T07:31:58.824Z,94.45
2023-04-17T07:32:58.700Z,94.04
2023-04-17T07:33:58.637Z,94.04
2023-04-17T07:34:58.632Z,92.50
2023-04-17T07:35:58.632Z,92.60
2023-04-17T07:36:58.613Z,91.57
2023-04-17T07:37:58.583Z,92.14
2023-04-17T07:38:58.566Z,91.33
2023-04-17T07:39:58.599Z,91.22
2023-04-17T07:40:58.529Z,90.71
2023-04-17T07:41:58.507Z,90.61
2023-04-17T07:42:58.512Z,90.67
2023-04-17T07:43:59.099Z,90.05
2023-04-17T07:44:58.469Z,88.82
2023-04-17T07:45:58.493Z,87.59
2023-04-17T07:46:58.517Z,88.35
2023-04-17T07:47:58.455Z,88.31
2023-04-17T07:48:58.439Z,88.00
2023-04-17T07:49:58.393Z,88.10
2023-04-17T07:50:58.366Z,88.00
2023-04-17T07:51:58.400Z,87.90
2023-04-17T07:52:58.341Z,88.00
2023-04-17T07:53:58.322Z,86.98
2023-04-17T07:54:58.306Z,86.36
2023-04-17T07:55:58.328Z,86.36
2023-04-17T07:56:58.365Z,86.57
2023-04-17T07:57:58.256Z,87.04
2023-04-17T07:58:58.259Z,86.36
2023-04-17T07:59:58.227Z,86.73
2023-04-17T08:00:58.227Z,86.07
2023-04-17T08:01:58.320Z,85.39
2023-04-17T08:02:58.452Z,84.95
2023-04-17T08:03:58.661Z,85.19
2023-04-17T08:04:58.251Z,84.17
2023-04-17T08:05:58.136Z,83.76
2023-04-17T08:06:58.125Z,82.93
2023-04-17T08:07:58.111Z,82.63
2023-04-17T08:08:58.137Z,83.04
2023-04-17T08:09:58.088Z,81.29
2023-04-17T08:10:58.060Z,81.50
2023-04-17T08:11:58.444Z,82.83
2023-04-17T08:12:58.039Z,83.00
2023-04-17T08:13:58.085Z,83.31
2023-04-17T08:14:58.009Z,83.41
2023-04-17T08:15:57.993Z,83.00
2023-04-17T08:16:58.068Z,83.10
2023-04-17T08:17:58.015Z,82.14
2023-04-17T08:18:57.954Z,81.15
2023-04-17T08:19:57.984Z,81.67
2023-04-17T08:20:58.015Z,81.15
2023-04-17T08:21:57.897Z,81.98
2023-04-17T08:22:57.882Z,82.18
2023-04-17T08:23:57.873Z,81.22
2023-04-17T08:24:57.998Z,81.12
2023-04-17T08:25:57.848Z,81.84
2023-04-17T08:26:57.830Z,81.38
2023-04-17T08:27:57.842Z,80.77
2023-04-17T08:28:57.801Z,80.36
2023-04-17T08:29:57.780Z,79.64
2023-04-17T08:30:57.830Z,79.13
2023-04-17T08:32:12.586Z,78.01
2023-04-17T08:32:58.026Z,79.44
2023-04-17T08:34:10.495Z,79.75
2023-04-17T08:34:57.710Z,80.88
2023-04-17T08:35:57.706Z,80.16
2023-04-17T08:36:57.685Z,79.54
2023-04-17T08:37:57.669Z,79.13
2023-04-17T08:38:57.656Z,78.83
2023-04-17T08:39:57.639Z,78.63
2023-04-17T08:40:57.655Z,80.26
2023-04-17T08:41:57.613Z,80.57
2023-04-17T08:42:57.599Z,79.61
2023-04-17T08:43:57.626Z,80.22
2023-04-17T08:44:57.575Z,80.08
2023-04-17T08:45:57.590Z,79.61
2023-04-17T08:46:57.549Z,80.60
2023-04-17T08:47:57.606Z,81.31
2023-04-17T08:48:57.515Z,82.03
2023-04-17T08:49:57.539Z,81.27
2023-04-17T08:50:57.530Z,79.64
2023-04-17T08:51:57.474Z,75.34
2023-04-17T08:52:57.503Z,75.75
2023-04-17T08:53:57.460Z,76.57
2023-04-17T08:54:57.438Z,77.19
2023-04-17T08:55:57.436Z,76.16
2023-04-17T08:56:57.413Z,77.19
2023-04-17T08:57:57.407Z,77.19
2023-04-17T08:58:57.384Z,77.08
2023-04-17T08:59:57.397Z,78.00
2023-04-17T09:00:57.406Z,78.11
2023-04-17T09:01:57.422Z,77.59
2023-04-17T09:02:57.686Z,77.29
2023-04-17T09:03:57.561Z,76.88
2023-04-17T09:04:57.424Z,77.19
2023-04-17T09:05:57.344Z,76.57
2023-04-17T09:06:57.280Z,76.26
2023-04-17T09:07:57.266Z,75.75
2023-04-17T09:08:57.441Z,76.43
2023-04-17T09:09:57.251Z,76.64
2023-04-17T09:10:57.226Z,76.43
2023-04-17T09:11:57.247Z,75.00
2023-04-17T09:12:57.198Z,75.96
2023-04-17T09:13:57.187Z,75.31
2023-04-17T09:14:57.176Z,75.34
2023-04-17T09:15:57.230Z,76.33
2023-04-17T09:16:57.148Z,75.92
2023-04-17T09:17:57.147Z,75.21
2023-04-17T09:18:57.192Z,73.98
2023-04-17T09:19:57.113Z,73.68
2023-04-17T09:20:57.099Z,75.10
2023-04-17T09:21:57.095Z,74.73
2023-04-17T09:22:57.080Z,74.52
2023-04-17T09:23:57.065Z,72.92
2023-04-17T09:24:57.786Z,73.33
2023-04-17T09:25:57.044Z,74.56
2023-04-17T09:26:57.031Z,74.42
2023-04-17T09:27:57.062Z,71.87
2023-04-17T09:28:57.060Z,73.81
2023-04-17T09:29:56.992Z,73.30
2023-04-17T09:30:57.020Z,72.58
2023-04-17T09:31:57.003Z,71.97
2023-04-17T09:32:57.027Z,73.88
2023-04-17T09:33:56.965Z,72.75
2023-04-17T09:34:56.957Z,70.10
2023-04-17T09:35:56.932Z,71.91
2023-04-17T09:36:56.956Z,69.76
2023-04-17T09:37:56.911Z,69.79
2023-04-17T09:38:56.904Z,71.09
2023-04-17T09:39:56.904Z,72.11
2023-04-17T09:40:57.087Z,70.14
2023-04-17T09:41:56.873Z,70.57
2023-04-17T09:42:56.873Z,70.89
2023-04-17T09:43:56.860Z,71.22
2023-04-17T09:44:56.847Z,71.33
2023-04-17T09:45:56.850Z,72.45
2023-04-17T09:46:56.879Z,71.60
2023-04-17T09:47:56.871Z,70.98
2023-04-17T09:48:56.807Z,71.06
2023-04-17T09:49:56.809Z,71.46
2023-04-17T09:50:56.806Z,68.03
2023-04-17T09:51:56.780Z,68.03
2023-04-17T09:52:56.774Z,69.56
2023-04-17T09:53:56.759Z,69.05
2023-04-17T09:54:56.753Z,68.03
2023-04-17T09:55:56.742Z,68.67
2023-04-17T09:56:56.743Z,69.96
2023-04-17T09:57:56.747Z,70.75
2023-04-17T09:58:56.711Z,70.24
2023-04-17T09:59:56.708Z,69.39
2023-04-17T10:00:56.717Z,69.29
2023-04-17T10:01:56.750Z,67.69
2023-04-17T10:02:56.832Z,67.21
2023-04-17T10:03:56.782Z,68.54
2023-04-17T10:04:56.647Z,69.83
2023-04-17T10:05:56.641Z,69.59
2023-04-17T10:06:56.681Z,69.80
2023-04-17T10:07:56.650Z,69.26
2023-04-17T10:08:56.607Z,69.80
2023-04-17T10:09:56.614Z,67.63
2023-04-17T10:10:56.605Z,67.83
2023-04-17T10:11:56.580Z,68.13
2023-04-17T10:12:56.617Z,67.93
2023-04-17T10:13:56.571Z,67.52
2023-04-17T10:14:56.551Z,66.47
2023-04-17T10:15:56.579Z,64.47
2023-04-17T10:16:56.588Z,65.86
2023-04-17T10:17:56.637Z,64.14
2023-04-17T10:18:56.582Z,65.56
2023-04-17T10:19:56.509Z,64.92
2023-04-17T10:20:56.497Z,65.63
2023-04-17T10:21:56.504Z,63.70
2023-04-17T10:22:56.570Z,64.41
2023-04-17T10:23:56.478Z,65.22
2023-04-17T10:24:56.465Z,66.14
2023-04-17T10:25:56.454Z,63.80
2023-04-17T10:26:56.449Z,64.89
2023-04-17T10:27:56.442Z,64.84
2023-04-17T10:28:56.506Z,65.25
2023-04-17T10:29:56.481Z,66.10
2023-04-17T10:30:56.419Z,65.86
2023-04-17T10:31:56.436Z,64.20
2023-04-17T10:32:56.435Z,63.59
2023-04-17T10:33:56.403Z,63.09
2023-04-17T10:34:56.389Z,62.58
2023-04-17T10:35:56.441Z,62.17
2023-04-17T10:36:56.374Z,62.24
2023-04-17T10:37:56.377Z,60.95
2023-04-17T10:38:56.357Z,62.88
2023-04-17T10:39:56.352Z,63.74
2023-04-17T10:40:56.348Z,63.91
2023-04-17T10:41:56.336Z,63.71
2023-04-17T10:42:56.331Z,63.07
2023-04-17T10:43:56.322Z,63.14
2023-04-17T10:44:56.326Z,61.82
2023-04-17T10:45:56.345Z,60.88
2023-04-17T10:46:56.295Z,60.95
2023-04-17T10:47:56.300Z,60.42
2023-04-17T10:48:56.314Z,60.69
2023-04-17T10:49:56.277Z,59.48
2023-04-17T10:50:56.333Z,59.48
2023-04-17T10:51:56.256Z,57.91
2023-04-17T10:52:56.298Z,58.54
2023-04-17T10:53:56.244Z,61.01
2023-04-17T10:54:56.232Z,60.10
2023-04-17T10:55:56.225Z,59.11
2023-04-17T10:56:56.231Z,59.82
2023-04-17T10:57:56.209Z,60.91
2023-04-17T10:58:56.200Z,60.74
2023-04-17T10:59:56.223Z,60.56
2023-04-17T11:00:56.213Z,60.69
2023-04-17T11:01:56.288Z,61.71
2023-04-17T11:02:56.262Z,60.97
2023-04-17T11:03:56.171Z,60.36
2023-04-17T11:04:56.231Z,60.86
2023-04-17T11:05:56.159Z,60.36
2023-04-17T11:06:56.150Z,59.37
2023-04-17T11:07:56.149Z,61.30
2023-04-17T11:08:57.403Z,62.29
2023-04-17T11:09:56.106Z,64.39
2023-04-17T11:10:56.095Z,62.94
2023-04-17T11:11:56.137Z,61.85
2023-04-17T11:12:56.108Z,62.94
2023-04-17T11:13:56.068Z,63.92
2023-04-17T11:14:56.061Z,59.77
2023-04-17T11:15:56.053Z,58.34
2023-04-17T11:16:56.100Z,58.58
2023-04-17T11:17:56.109Z,57.76
2023-04-17T11:18:56.030Z,58.06
2023-04-17T11:19:56.026Z,58.98
2023-04-17T11:20:56.024Z,58.54
2023-04-17T11:21:56.001Z,59.36
2023-04-17T11:22:55.993Z,58.95
2023-04-17T11:23:56.026Z,60.04
2023-04-17T11:24:55.980Z,61.02
2023-04-17T11:25:55.983Z,59.88
2023-04-17T11:26:55.959Z,59.58
2023-04-17T11:27:55.966Z,56.82
2023-04-17T11:28:55.948Z,57.90
2023-04-17T11:29:55.946Z,58.48
2023-04-17T11:30:55.945Z,54.74
2023-04-17T11:31:55.942Z,56.05
2023-04-17T11:32:56.096Z,56.79
2023-04-17T11:33:55.909Z,56.23
2023-04-17T11:34:55.910Z,55.43
2023-04-17T11:35:55.888Z,56.74
2023-04-17T11:36:55.876Z,56.64
2023-04-17T11:37:55.872Z,53.88
2023-04-17T11:38:55.894Z,54.82
2023-04-17T11:39:55.866Z,55.83
2023-04-17T11:40:55.871Z,58.26
2023-04-17T11:41:55.865Z,56.71
2023-04-17T11:42:55.828Z,57.60
2023-04-17T11:43:55.821Z,55.95
2023-04-17T11:44:55.844Z,54.03
2023-04-17T11:45:55.819Z,54.03
2023-04-17T11:46:55.812Z,54.74
2023-04-17T11:47:55.876Z,54.46
2023-04-17T11:48:55.813Z,53.98
2023-04-17T11:49:55.799Z,53.83
2023-04-17T11:50:55.782Z,53.98
2023-04-17T11:51:56.680Z,54.84
2023-04-17T11:52:55.753Z,55.27
2023-04-17T11:53:55.747Z,56.49
2023-04-17T11:54:55.742Z,56.60
2023-04-17T11:55:55.726Z,57.86
2023-04-17T11:56:55.797Z,56.52
2023-04-17T11:57:55.705Z,56.54
2023-04-17T11:58:55.697Z,55.93
2023-04-17T11:59:55.689Z,55.98
2023-04-17T12:00:55.687Z,56.53
2023-04-17T12:01:55.688Z,54.49
2023-04-17T12:02:55.784Z,54.51
2023-04-17T12:03:55.792Z,53.07
2023-04-17T12:04:55.739Z,51.96
2023-04-17T12:05:55.731Z,52.84
2023-04-17T12:06:56.982Z,50.77
2023-04-17T12:07:55.652Z,52.44
2023-04-17T12:08:55.636Z,53.91
2023-04-17T12:09:55.615Z,53.85
2023-04-17T12:10:55.609Z,54.79
2023-04-17T12:11:55.635Z,55.15
2023-04-17T12:12:55.603Z,57.97
2023-04-17T12:13:55.601Z,57.25
2023-04-17T12:14:55.591Z,57.33
2023-04-17T12:15:55.581Z,55.50
2023-04-17T12:16:55.560Z,54.41
2023-04-17T12:17:55.620Z,56.64
2023-04-17T12:18:55.604Z,54.99
2023-04-17T12:19:55.538Z,54.16
2023-04-17T12:20:55.534Z,53.07
2023-04-17T12:21:55.515Z,53.83
2023-04-17T12:22:55.517Z,49.87
2023-04-17T12:23:55.506Z,49.13
2023-04-17T12:24:55.525Z,49.92
2023-04-17T12:25:55.500Z,50.57
2023-04-17T12:26:55.484Z,51.23
2023-04-17T12:27:55.482Z,47.79
2023-04-17T12:28:55.514Z,46.76
2023-04-17T12:29:55.479Z,45.17
2023-04-17T12:30:55.468Z,46.17
2023-04-17T12:31:55.491Z,48.37
2023-04-17T12:32:55.515Z,49.22
2023-04-17T12:33:55.453Z,50.64
2023-04-17T12:34:55.479Z,49.22
2023-04-17T12:35:55.479Z,49.91
2023-04-17T12:36:55.466Z,50.98
2023-04-17T12:37:55.429Z,47.85
2023-04-17T12:38:55.438Z,47.77
2023-04-17T12:39:55.427Z,50.57
2023-04-17T12:40:55.479Z,50.15
2023-04-17T12:41:55.437Z,47.70
2023-04-17T12:42:55.432Z,46.87
2023-04-17T12:43:55.406Z,47.35
2023-04-17T12:44:55.408Z,45.79
2023-04-17T12:45:55.472Z,45.79
2023-04-17T12:46:55.454Z,47.41
2023-04-17T12:47:55.446Z,45.67
2023-04-17T12:48:55.387Z,47.49
2023-04-17T12:49:55.385Z,47.56
2023-04-17T12:50:55.382Z,47.94
2023-04-17T12:51:55.374Z,46.03